Divnogorsk, Russia
Current Conditions -  °F | °C
As of 12:30 PM on Saturday 25 Oct 2014 (Local Time) from UNKL Reporting Station
Overcast Overcast  
Wind Chill: 16°   Ceiling: 8300
Heat Index: 27°   Visibility: 6mi
Dew Point: 19°   Wind: 11mph
Humidity: 74%   Direction: 110°ESE
Pressure: 30.03"   Gusts: NA
Location:  55.96°N, 92.36°E
Report Text: UNKL 250530Z 11005MPS 9999 SCT033 OVC083 M03/M07 Q1017 NOSIGRMK QFE737 11////50
Loading
Personal Weather Stations






























Interactive Weather Map
Tropical Storm Tracking
New forecast layout! Learn more

10-Day Weather Forecast

Advertisements
Track Severe Weather on mobile